This is the latest recevied weather packets stored in our database for station/object BG5CNE-12. If no packets are shown the sender has not sent any weather packets the latest 10 day(s).
| Time | Temp. | Humidity | Pressure | Rain* | Wind** | Luminosity | Snow |
|---|---|---|---|---|---|---|---|
| 1777604116 | 22.22° C | 47% | 1017 hPa | 0 mm | - | - | - |
| 1777586114 | 7.78° C | 94% | 1019 hPa | 0 mm | - | - | - |
| 1777580113 | 7.78° C | 93% | 1020 hPa | 0 mm | - | - | - |
| 1777574112 | 8.89° C | 93% | 1018 hPa | 0 mm | - | - | - |
| 1777568111 | 8.89° C | 88% | 1015 hPa | 0 mm | - | - | - |
| 1777562110 | 11.11° C | 79% | 1020 hPa | 0 mm | - | - | - |
| 1777556109 | 12.22° C | 76% | 1019 hPa | 0 mm | - | - | - |
| 1777550108 | 12.78° C | 70% | 1021 hPa | 0 mm | - | - | - |
| 1777544106 | 17.22° C | 48% | 1018 hPa | 0 mm | - | - | - |
| 1777538105 | 18.89° C | 46% | 1015 hPa | 0 mm | - | - | - |
| 1777532104 | 18.89° C | 44% | 1018 hPa | 0 mm | - | - | - |
| 1777526103 | 17.78° C | 47% | 1020 hPa | 0 mm | - | - | - |
| 1777520102 | 15° C | 64% | 1019 hPa | 0 mm | - | - | - |
| 1777514100 | 15° C | 69% | 1019 hPa | 0 mm | - | - | - |
| 1777508100 | 13.89° C | 72% | 1020 hPa | 0 mm | - | - | - |
| 1777502099 | 11.11° C | 82% | 1022 hPa | 0 mm | - | - | - |
| 1777484096 | 11.11° C | 93% | 1017 hPa | 0 mm | - | - | - |
| 1777478095 | 11.11° C | 93% | 1021 hPa | 0 mm | - | - | - |
| 1777472094 | 11.11° C | 93% | 1019 hPa | 0 mm | - | - | - |
| 1777454090 | 12.22° C | 93% | 1017 hPa | 0 mm | - | - | - |
| 1777448089 | 12.22° C | 93% | 1021 hPa | 0 mm | - | - | - |
| 1777442088 | 12.22° C | 92% | 1021 hPa | 0 mm | - | - | - |
| 1777436087 | 12.22° C | 93% | 1022 hPa | 0 mm | - | - | - |
| 1777400081 | 13.89° C | 78% | 1018 hPa | 0 mm | - | - | - |
| 1777382077 | 15° C | 71% | 1017 hPa | 0 mm | - | - | - |
* Rain latest hour (hover to see other rain measurements)
** Current wind speed in m/s (hover to see current wind gust speed)